• Join FlightAware (Why Join?)
  • Login
  • US Flag 
Rudolph Flight #1: Arrived! 
11:46AM EST


 

Airport Tracker/Info


-or-


 

Live Flight TrackerFlight Track Log ✈ SWA59 ✈ 04-May-2014 ✈ KDAL - KHOU

Flight Track Log - Related Links

Times and Time Zones

All times are in EDT time to prevent confusion due to time zone crossing. See the SWA59 flight status page for this flight to view local times or setup timezone preferences in your user account.

Time Position Orientation Groundspeed Altitude Reporting Facility
EDT Latitude Longitude Course Direction KTS MPH feet Rate Location/Type
10:09PM 32.8333 -96.8333 157° South 152 175 1,400  Level Dallas / Fort Worth TRACON
10:09PM 32.8000 -96.8167 157° South 174 200 2,700 1,980 Climbing Dallas / Fort Worth TRACON
10:10PM 32.7500 -96.7833 151° Southeast 251 289 4,800 2,520 Climbing Dallas / Fort Worth TRACON
10:12PM 32.6503 -96.8036 190° South 272 313 8,900 2,460 Climbing Fort Worth Center
10:13PM 32.5692 -96.8328 197° South 303 349 11,000 2,880 Climbing Fort Worth Center
10:14PM 32.4750 -96.8681 198° South 328 377 14,900 3,300 Climbing Fort Worth Center
10:15PM 32.3822 -96.9011 197° South 345 397 17,800 2,700 Climbing Fort Worth Center
10:16PM 32.2825 -96.9347 196° South 370 426 20,500 2,520 Climbing Fort Worth Center
10:17PM 32.1786 -96.9183 172° South 387 445 23,000 2,220 Climbing Fort Worth Center
10:18PM 32.0686 -96.8997 172° South 395 455 25,100 1,980 Climbing Fort Worth Center
10:19PM 31.9386 -96.8781 172° South 426 490 27,100 1,560 Climbing Fort Worth Center
10:20PM 31.8119 -96.8547 171° South 454 522 28,300 1,620 Climbing Fort Worth Center
10:21PM 31.6819 -96.8333 172° South 468 539 30,500 1,980 Climbing Fort Worth Center
10:22PM 31.5528 -96.8131 172° South 468 539 32,400 1,200 Climbing Fort Worth Center
10:23PM 31.4258 -96.7833 169° South 468 539 33,000 300 Climbing Fort Worth Center
10:24PM 31.3264 -96.7353 158° South 465 535 33,000  Level Houston Center
10:25PM 31.2036 -96.6758 158° South 470 541 33,000  Level Houston Center
10:26PM 31.0814 -96.6167 157° South 471 542 33,000 -540 Level Houston Center
10:27PM 30.9608 -96.5606 158° South 469 540 32,000 -2,400 Descending Houston Center
10:28PM 30.8400 -96.5028 158° South 467 537 28,200 -3,420 Descending Houston Center
10:29PM 30.7219 -96.4486 158° South 459 528 25,100 -3,180 Descending Houston Center
10:30PM 30.6078 -96.3950 158° South 446 513 21,800 -3,180 Descending Houston Center
10:31PM 30.4986 -96.3436 158° South 426 490 18,600 -3,420 Descending Houston Center
10:31PM 30.4219 -96.3072 158° South 413 475 16,500 -3,000 Descending Houston Center
10:32PM 30.3925 -96.2944 159° South 412 474 15,600 -2,640 Descending Houston Center
10:33PM 30.2928 -96.2469 158° South 390 449 12,600 -2,280 Descending Houston Center
10:34PM 30.1989 -96.2039 158° South 366 421 11,000 -1,320 Descending Houston Center
10:34PM 30.1639 -96.1839 154° Southeast 349 402 11,000 -240 Level Houston Center
10:35PM 30.0972 -96.1481 155° Southeast 354 407 10,800 -420 Descending Houston Center
10:35PM 30.0761 -96.1383 158° South 328 377 10,600 -1,140 Descending Houston Center
10:36PM 30.0217 -96.1092 155° Southeast 303 349 9,700 -1,500 Descending Houston Center
10:37PM 29.9522 -96.0708 154° Southeast 283 326 8,000 -1,380 Descending Houston Center
10:38PM 29.8831 -96.0339 155° Southeast 275 316 7,000 -540 Descending Houston Center
10:39PM 29.8425 -95.9753 129° Southeast 280 322 7,000  Level Houston Center
10:40PM 29.8364 -95.8669 94° East 282 325 7,000  Level Houston Center
10:40PM 29.8350 -95.8500 95° East 282 325 7,000 -120 Level Houston Center
10:41PM 29.8294 -95.7772 95° East 282 325 6,900 -1,020 Descending Houston Center
10:42PM 29.8225 -95.6897 95° East 280 322 5,200 -1,680 Descending Houston Center
10:43PM 29.8158 -95.6092 95° East 268 308 3,700 -1,140 Descending Houston Center
10:44PM 29.8092 -95.5217 95° East 262 302 3,000 -660 Descending Houston Center
10:45PM 29.7786 -95.4547 118° Southeast 207 238 2,400 -540 Descending Houston Center
10:46PM 29.7425 -95.4036 129° Southeast 196 226 2,000 -300 Descending Houston Center
10:47PM 29.7153 -95.3608 126° Southeast 195 224 1,900 -480 Descending Houston Center
10:48PM 29.6897 -95.3306 134° Southeast 114 131 1,100 -720 Descending Houston Center
10:49PM 29.6661 -95.3047 136° Southeast 118 136 500 -600 Descending Houston Center
10:52PM 29.6454 -95.2789 115° Southeast  Level Estimated